North Tisbury, Massachusetts
Current Conditions -  °F | °C
As of 1:53 AM on Friday 28 Nov 2014 (Local Time) from KMVY Reporting Station
Overcast Overcast  
Wind Chill: 27°   Ceiling: 700
Heat Index: 34°   Visibility: 10mi
Dew Point: 32°   Wind: 9mph
Humidity: 92%   Direction: 340°NNW
Pressure: 29.95"   Gusts: NA
Location:  41.4442°N, 70.5999°W
Report Text: KMVY 280653Z AUTO 34008KT 10SM OVC007 01/00 A2995 RMK AO2 SNB10E20 SLP141 P0000 T00110000
Loading
Personal Weather Stations






























Interactive Weather Map New forecast layout! Learn more

10-Day Weather Forecast

Advertisements
Track Severe Weather on mobile